createdAt,value
2018-01-21T00:00:16.307Z,999.58
2018-01-21T00:01:16.235Z,999.53
2018-01-21T00:02:16.208Z,999.59
2018-01-21T00:03:16.169Z,999.54
2018-01-21T00:04:16.134Z,999.56
2018-01-21T00:05:16.064Z,999.55
2018-01-21T00:06:16.119Z,999.54
2018-01-21T00:07:15.979Z,999.54
2018-01-21T00:08:16.143Z,999.52
2018-01-21T00:09:15.924Z,999.54
2018-01-21T00:10:15.848Z,999.54
2018-01-21T00:11:15.815Z,999.53
2018-01-21T00:12:15.781Z,999.56
2018-01-21T00:13:15.737Z,999.54
2018-01-21T00:14:15.840Z,999.56
2018-01-21T00:15:15.986Z,999.55
2018-01-21T00:16:15.589Z,999.57
2018-01-21T00:17:15.543Z,999.60
2018-01-21T00:18:15.506Z,999.56
2018-01-21T00:19:15.456Z,999.58
2018-01-21T00:20:15.424Z,999.57
2018-01-21T00:21:15.371Z,999.60
2018-01-21T00:22:15.329Z,999.62
2018-01-21T00:23:15.286Z,999.59
2018-01-21T00:24:15.251Z,999.55
2018-01-21T00:25:15.210Z,999.63
2018-01-21T00:26:15.166Z,999.62
2018-01-21T00:27:15.118Z,999.70
2018-01-21T00:28:15.075Z,999.67
2018-01-21T00:29:15.035Z,999.69
2018-01-21T00:30:14.983Z,999.68
2018-01-21T00:31:14.956Z,999.67
2018-01-21T00:32:14.914Z,999.71
2018-01-21T00:33:14.911Z,999.70
2018-01-21T00:34:14.834Z,999.72
2018-01-21T00:35:14.774Z,999.67
2018-01-21T00:36:14.754Z,999.68
2018-01-21T00:37:14.781Z,999.67
2018-01-21T00:38:14.647Z,999.66
2018-01-21T00:39:14.638Z,999.74
2018-01-21T00:40:14.571Z,999.69
2018-01-21T00:41:14.520Z,999.71
2018-01-21T00:42:14.502Z,999.72
2018-01-21T00:43:14.496Z,999.72
2018-01-21T00:44:14.392Z,999.72
2018-01-21T00:45:14.395Z,999.72
2018-01-21T00:46:14.301Z,999.75
2018-01-21T00:47:14.271Z,999.83
2018-01-21T00:48:14.226Z,999.80
2018-01-21T00:49:14.167Z,999.80
2018-01-21T00:50:14.273Z,999.84
2018-01-21T00:51:14.457Z,999.85
2018-01-21T00:52:14.384Z,999.83
2018-01-21T00:53:14.183Z,999.86
2018-01-21T00:54:14.720Z,999.90
2018-01-21T00:55:13.970Z,999.89
2018-01-21T00:56:13.897Z,999.90
2018-01-21T00:57:14.034Z,999.94
2018-01-21T00:58:13.809Z,999.95
2018-01-21T00:59:13.742Z,999.98
2018-01-21T01:00:13.763Z,1000.03
2018-01-21T01:01:13.650Z,1000.02
2018-01-21T01:02:13.612Z,1000.03
2018-01-21T01:03:13.580Z,1000.06
2018-01-21T01:04:13.778Z,1000.08
2018-01-21T01:05:13.484Z,1000.07
2018-01-21T01:06:13.451Z,1000.11
2018-01-21T01:07:13.531Z,1000.13
2018-01-21T01:08:13.457Z,1000.12
2018-01-21T01:09:13.400Z,1000.15
2018-01-21T01:10:13.320Z,1000.14
2018-01-21T01:11:13.270Z,1000.16
2018-01-21T01:12:13.189Z,1000.14
2018-01-21T01:13:13.339Z,1000.15
2018-01-21T01:14:13.270Z,1000.15
2018-01-21T01:15:13.203Z,1000.20
2018-01-21T01:16:13.008Z,1000.21
2018-01-21T01:17:12.961Z,1000.19
2018-01-21T01:18:12.926Z,1000.22
2018-01-21T01:19:12.870Z,1000.22
2018-01-21T01:20:12.833Z,1000.23
2018-01-21T01:21:13.010Z,1000.25
2018-01-21T01:22:13.054Z,1000.31
2018-01-21T01:23:12.877Z,1000.31
2018-01-21T01:24:12.694Z,1000.29
2018-01-21T01:25:12.615Z,1000.34
2018-01-21T01:26:12.581Z,1000.38
2018-01-21T01:27:12.533Z,1000.33
2018-01-21T01:28:12.505Z,1000.35
2018-01-21T01:29:12.502Z,1000.37
2018-01-21T01:30:12.583Z,1000.37
2018-01-21T01:31:12.374Z,1000.35
2018-01-21T01:32:12.314Z,1000.40
2018-01-21T01:33:12.281Z,1000.43
2018-01-21T01:34:12.240Z,1000.42
2018-01-21T01:35:12.416Z,1000.46
2018-01-21T01:36:12.510Z,1000.48
2018-01-21T01:37:12.106Z,1000.48
2018-01-21T01:38:12.078Z,1000.47
2018-01-21T01:39:12.073Z,1000.46
2018-01-21T01:40:11.982Z,1000.49
2018-01-21T01:41:12.135Z,1000.52
2018-01-21T01:42:11.998Z,1000.51
2018-01-21T01:43:12.028Z,1000.52
2018-01-21T01:44:11.956Z,1000.51
2018-01-21T01:45:12.057Z,1000.55
2018-01-21T01:46:11.786Z,1000.56
2018-01-21T01:47:11.702Z,1000.58
2018-01-21T01:48:11.650Z,1000.58
2018-01-21T01:49:11.582Z,1000.63
2018-01-21T01:50:11.592Z,1000.60
2018-01-21T01:51:11.756Z,1000.67
2018-01-21T01:52:11.461Z,1000.61
2018-01-21T01:53:11.430Z,1000.62
2018-01-21T01:54:11.403Z,1000.66
2018-01-21T01:55:11.373Z,1000.69
2018-01-21T01:56:11.316Z,1000.72
2018-01-21T01:57:11.245Z,1000.71
2018-01-21T01:58:11.199Z,1000.74
2018-01-21T01:59:11.183Z,1000.74
2018-01-21T02:00:11.127Z,1000.73
2018-01-21T02:01:11.072Z,1000.72
2018-01-21T02:02:11.033Z,1000.78
2018-01-21T02:03:11.041Z,1000.77
2018-01-21T02:04:10.941Z,1000.75
2018-01-21T02:05:10.901Z,1000.78
2018-01-21T02:06:10.908Z,1000.76
2018-01-21T02:07:10.892Z,1000.78
2018-01-21T02:08:10.846Z,1000.79
2018-01-21T02:09:10.900Z,1000.80
2018-01-21T02:10:10.686Z,1000.80
2018-01-21T02:11:10.684Z,1000.83
2018-01-21T02:12:10.600Z,1000.82
2018-01-21T02:13:10.803Z,1000.80
2018-01-21T02:14:10.542Z,1000.83
2018-01-21T02:15:10.497Z,1000.80
2018-01-21T02:16:10.435Z,1000.90
2018-01-21T02:17:10.402Z,1000.88
2018-01-21T02:18:10.339Z,1000.88
2018-01-21T02:19:10.294Z,1000.88
2018-01-21T02:20:10.266Z,1000.92
2018-01-21T02:21:10.218Z,1000.95
2018-01-21T02:22:10.207Z,1000.93
2018-01-21T02:23:10.122Z,1000.97
2018-01-21T02:24:10.075Z,1000.96
2018-01-21T02:25:10.035Z,1000.99
2018-01-21T02:26:09.992Z,1001.02
2018-01-21T02:27:09.956Z,1000.99
2018-01-21T02:28:09.912Z,1001.00
2018-01-21T02:29:09.872Z,1001.01
2018-01-21T02:30:09.820Z,1001.02
2018-01-21T02:31:09.777Z,1001.05
2018-01-21T02:32:09.742Z,1001.04
2018-01-21T02:33:09.752Z,1001.05
2018-01-21T02:34:09.650Z,1001.06
2018-01-21T02:35:09.617Z,1001.08
2018-01-21T02:36:09.573Z,1001.10
2018-01-21T02:37:09.540Z,1001.09
2018-01-21T02:38:09.478Z,1001.08
2018-01-21T02:39:09.437Z,1001.12
2018-01-21T02:40:09.428Z,1001.10
2018-01-21T02:41:09.346Z,1001.14
2018-01-21T02:42:09.328Z,1001.13
2018-01-21T02:43:09.257Z,1001.15
2018-01-21T02:44:09.222Z,1001.20
2018-01-21T02:45:09.176Z,1001.18
2018-01-21T02:46:09.139Z,1001.19
2018-01-21T02:47:09.090Z,1001.27
2018-01-21T02:48:09.046Z,1001.26
2018-01-21T02:49:09.028Z,1001.29
2018-01-21T02:50:08.980Z,1001.29
2018-01-21T02:51:08.914Z,1001.35
2018-01-21T02:52:08.899Z,1001.32
2018-01-21T02:53:08.874Z,1001.29
2018-01-21T02:54:08.792Z,1001.29
2018-01-21T02:55:08.764Z,1001.28
2018-01-21T02:56:08.707Z,1001.33
2018-01-21T02:57:08.728Z,1001.31
2018-01-21T02:58:08.628Z,1001.32
2018-01-21T02:59:08.578Z,1001.29
2018-01-21T03:00:08.535Z,1001.34
2018-01-21T03:01:08.504Z,1001.36
2018-01-21T03:02:08.451Z,1001.32
2018-01-21T03:03:08.430Z,1001.36
2018-01-21T03:04:08.369Z,1001.36
2018-01-21T03:05:08.312Z,1001.36
2018-01-21T03:06:08.285Z,1001.36
2018-01-21T03:07:08.245Z,1001.35
2018-01-21T03:08:08.197Z,1001.36
2018-01-21T03:09:08.176Z,1001.38
2018-01-21T03:10:08.106Z,1001.36
2018-01-21T03:11:08.087Z,1001.39
2018-01-21T03:12:08.063Z,1001.37
2018-01-21T03:13:07.976Z,1001.42
2018-01-21T03:14:07.937Z,1001.43
2018-01-21T03:15:07.889Z,1001.47
2018-01-21T03:16:07.881Z,1001.44
2018-01-21T03:17:07.806Z,1001.46
2018-01-21T03:18:07.756Z,1001.48
2018-01-21T03:19:07.710Z,1001.54
2018-01-21T03:20:07.713Z,1001.51
2018-01-21T03:21:07.619Z,1001.51
2018-01-21T03:22:07.596Z,1001.58
2018-01-21T03:23:07.546Z,1001.57
2018-01-21T03:24:07.503Z,1001.60
2018-01-21T03:25:07.466Z,1001.60
2018-01-21T03:26:07.413Z,1001.65
2018-01-21T03:27:07.381Z,1001.66
2018-01-21T03:28:07.330Z,1001.65
2018-01-21T03:29:07.281Z,1001.71
2018-01-21T03:30:07.247Z,1001.73
2018-01-21T03:31:07.199Z,1001.69
2018-01-21T03:32:07.185Z,1001.70
2018-01-21T03:33:07.114Z,1001.69
2018-01-21T03:34:07.453Z,1001.70
2018-01-21T03:35:07.030Z,1001.70
2018-01-21T03:36:07.002Z,1001.69
2018-01-21T03:37:06.949Z,1001.73
2018-01-21T03:38:06.896Z,1001.69
2018-01-21T03:39:06.856Z,1001.71
2018-01-21T03:40:06.814Z,1001.69
2018-01-21T03:41:07.044Z,1001.69
2018-01-21T03:42:06.730Z,1001.75
2018-01-21T03:43:06.684Z,1001.78
2018-01-21T03:44:06.648Z,1001.76
2018-01-21T03:45:06.614Z,1001.78
2018-01-21T03:46:06.561Z,1001.78
2018-01-21T03:47:06.516Z,1001.80
2018-01-21T03:48:06.519Z,1001.83
2018-01-21T03:49:06.428Z,1001.80
2018-01-21T03:50:06.425Z,1001.81
2018-01-21T03:51:06.441Z,1001.90
2018-01-21T03:52:06.374Z,1001.88
2018-01-21T03:53:06.297Z,1001.91
2018-01-21T03:54:06.227Z,1001.89
2018-01-21T03:55:06.166Z,1001.92
2018-01-21T03:56:06.130Z,1001.92
2018-01-21T03:57:06.187Z,1001.94
2018-01-21T03:58:06.053Z,1001.95
2018-01-21T03:59:06.005Z,1001.91
2018-01-21T04:00:06.150Z,1001.96
2018-01-21T04:01:05.899Z,1001.99
2018-01-21T04:02:05.860Z,1002.03
2018-01-21T04:03:05.812Z,1002.03
2018-01-21T04:04:05.769Z,1002.06
2018-01-21T04:05:05.724Z,1002.06
2018-01-21T04:06:05.682Z,1002.10
2018-01-21T04:07:05.657Z,1002.09
2018-01-21T04:08:05.598Z,1002.12
2018-01-21T04:09:05.553Z,1002.21
2018-01-21T04:10:05.513Z,1002.20
2018-01-21T04:11:05.470Z,1002.18
2018-01-21T04:12:05.425Z,1002.20
2018-01-21T04:13:05.382Z,1002.20
2018-01-21T04:14:05.366Z,1002.28
2018-01-21T04:15:05.293Z,1002.26
2018-01-21T04:16:05.254Z,1002.27
2018-01-21T04:17:05.206Z,1002.30
2018-01-21T04:18:05.168Z,1002.32
2018-01-21T04:19:05.124Z,1002.30
2018-01-21T04:20:05.078Z,1002.31
2018-01-21T04:21:05.034Z,1002.33
2018-01-21T04:22:04.992Z,1002.37
2018-01-21T04:23:04.951Z,1002.36
2018-01-21T04:24:04.908Z,1002.41
2018-01-21T04:25:04.860Z,1002.43
2018-01-21T04:26:04.819Z,1002.42
2018-01-21T04:27:04.776Z,1002.45
2018-01-21T04:28:04.737Z,1002.46
2018-01-21T04:29:04.698Z,1002.47
2018-01-21T04:30:04.651Z,1002.49
2018-01-21T04:31:04.610Z,1002.54
2018-01-21T04:32:04.634Z,1002.57
2018-01-21T04:33:04.529Z,1002.55
2018-01-21T04:34:04.481Z,1002.55
2018-01-21T04:35:04.432Z,1002.59
2018-01-21T04:36:04.392Z,1002.58
2018-01-21T04:37:04.370Z,1002.57
2018-01-21T04:38:04.308Z,1002.58
2018-01-21T04:39:04.269Z,1002.60
2018-01-21T04:40:04.216Z,1002.69
2018-01-21T04:41:04.186Z,1002.66
2018-01-21T04:42:04.156Z,1002.73
2018-01-21T04:43:04.092Z,1002.74
2018-01-21T04:44:04.059Z,1002.79
2018-01-21T04:45:04.008Z,1002.79
2018-01-21T04:46:03.989Z,1002.81
2018-01-21T04:47:03.922Z,1002.84
2018-01-21T04:48:03.870Z,1002.93
2018-01-21T04:49:03.834Z,1002.91
2018-01-21T04:50:03.789Z,1002.90
2018-01-21T04:51:04.452Z,1002.93
2018-01-21T04:52:03.698Z,1002.94
2018-01-21T04:53:03.655Z,1002.95
2018-01-21T04:54:03.615Z,1002.97
2018-01-21T04:55:03.571Z,1002.97
2018-01-21T04:56:03.531Z,1002.99
2018-01-21T04:57:03.483Z,1003.05
2018-01-21T04:58:03.439Z,1003.01
2018-01-21T04:59:03.396Z,1003.03
2018-01-21T05:00:03.355Z,1003.05
2018-01-21T05:01:03.308Z,1003.02
2018-01-21T05:02:03.268Z,1003.07
2018-01-21T05:03:03.226Z,1003.06
2018-01-21T05:04:03.192Z,1003.10
2018-01-21T05:05:03.139Z,1003.08
2018-01-21T05:06:03.096Z,1003.09
2018-01-21T05:07:03.052Z,1003.14
2018-01-21T05:08:03.009Z,1003.12
2018-01-21T05:09:02.974Z,1003.16
2018-01-21T05:10:02.924Z,1003.19
2018-01-21T05:11:02.881Z,1003.15
2018-01-21T05:12:02.842Z,1003.16
2018-01-21T05:13:02.791Z,1003.18
2018-01-21T05:14:02.749Z,1003.21
2018-01-21T05:15:02.707Z,1003.19
2018-01-21T05:16:02.666Z,1003.27
2018-01-21T05:17:02.621Z,1003.25
2018-01-21T05:18:02.578Z,1003.25
2018-01-21T05:19:02.533Z,1003.28
2018-01-21T05:20:02.490Z,1003.31
2018-01-21T05:21:02.452Z,1003.35
2018-01-21T05:22:02.412Z,1003.35
2018-01-21T05:23:02.362Z,1003.37
2018-01-21T05:24:02.317Z,1003.38
2018-01-21T05:25:02.274Z,1003.39
2018-01-21T05:26:02.231Z,1003.39
2018-01-21T05:27:02.190Z,1003.36
2018-01-21T05:28:02.151Z,1003.44
2018-01-21T05:29:02.104Z,1003.44
2018-01-21T05:30:02.059Z,1003.52
2018-01-21T05:31:02.016Z,1003.47
2018-01-21T05:32:01.973Z,1003.48
2018-01-21T05:33:01.931Z,1003.53
2018-01-21T05:34:01.887Z,1003.48
2018-01-21T05:35:01.844Z,1003.54
2018-01-21T05:36:01.802Z,1003.51
2018-01-21T05:37:01.757Z,1003.53
2018-01-21T05:38:01.714Z,1003.57
2018-01-21T05:39:01.671Z,1003.58
2018-01-21T05:40:01.628Z,1003.62
2018-01-21T05:41:01.586Z,1003.64
2018-01-21T05:42:01.541Z,1003.65
2018-01-21T05:43:01.505Z,1003.70
2018-01-21T05:44:01.455Z,1003.68
2018-01-21T05:45:01.414Z,1003.72
2018-01-21T05:46:01.367Z,1003.74
2018-01-21T05:47:01.326Z,1003.75
2018-01-21T05:48:01.286Z,1003.74
2018-01-21T05:49:01.238Z,1003.81
2018-01-21T05:50:01.195Z,1003.83
2018-01-21T05:51:01.150Z,1003.83
2018-01-21T05:52:01.111Z,1003.85
2018-01-21T05:53:01.065Z,1003.89
2018-01-21T05:54:01.021Z,1003.86
2018-01-21T05:55:00.976Z,1003.90
2018-01-21T05:56:00.933Z,1003.94
2018-01-21T05:57:00.890Z,1003.95
2018-01-21T05:58:00.864Z,1003.94
2018-01-21T05:59:00.804Z,1004.01
2018-01-21T06:00:00.762Z,1003.96
2018-01-21T06:01:00.723Z,1003.99
2018-01-21T06:02:00.675Z,1004.02
2018-01-21T06:03:00.632Z,1004.01
2018-01-21T06:04:00.587Z,1004.04
2018-01-21T06:05:00.560Z,1004.02
2018-01-21T06:06:00.501Z,1004.07
2018-01-21T06:07:00.460Z,1004.11
2018-01-21T06:08:00.417Z,1004.12
2018-01-21T06:09:00.371Z,1004.14
2018-01-21T06:10:00.330Z,1004.16
2018-01-21T06:11:00.287Z,1004.15
2018-01-21T06:12:00.249Z,1004.08
2018-01-21T06:13:00.203Z,1004.11
2018-01-21T06:14:00.157Z,1004.13
2018-01-21T06:15:00.114Z,1004.09
2018-01-21T06:16:00.072Z,1004.17
2018-01-21T06:17:00.025Z,1004.16
2018-01-21T06:17:59.995Z,1004.20
2018-01-21T06:18:59.939Z,1004.26
2018-01-21T06:19:59.911Z,1004.20
2018-01-21T06:20:59.852Z,1004.26
2018-01-21T06:21:59.829Z,1004.30
2018-01-21T06:22:59.765Z,1004.31
2018-01-21T06:23:59.724Z,1004.32
2018-01-21T06:24:59.677Z,1004.36
2018-01-21T06:25:59.636Z,1004.33
2018-01-21T06:26:59.592Z,1004.36
2018-01-21T06:27:59.548Z,1004.39
2018-01-21T06:28:59.513Z,1004.38
2018-01-21T06:29:59.463Z,1004.41
2018-01-21T06:30:59.420Z,1004.47
2018-01-21T06:31:59.377Z,1004.50
2018-01-21T06:32:59.333Z,1004.50
2018-01-21T06:33:59.288Z,1004.54
2018-01-21T06:34:59.257Z,1004.64
2018-01-21T06:35:59.202Z,1004.58
2018-01-21T06:36:59.157Z,1004.62
2018-01-21T06:37:59.117Z,1004.63
2018-01-21T06:38:59.073Z,1004.68
2018-01-21T06:39:59.031Z,1004.69
2018-01-21T06:40:58.992Z,1004.70
2018-01-21T06:41:58.941Z,1004.72
2018-01-21T06:42:58.898Z,1004.75
2018-01-21T06:43:58.857Z,1004.77
2018-01-21T06:44:58.834Z,1004.80
2018-01-21T06:45:58.777Z,1004.83
2018-01-21T06:46:58.726Z,1004.83
2018-01-21T06:47:58.685Z,1004.84
2018-01-21T06:48:58.638Z,1004.84
2018-01-21T06:49:58.602Z,1004.88
2018-01-21T06:50:58.554Z,1004.87
2018-01-21T06:51:58.510Z,1004.87
2018-01-21T06:52:58.466Z,1004.91
2018-01-21T06:53:58.424Z,1004.95
2018-01-21T06:54:58.393Z,1004.99
2018-01-21T06:55:58.339Z,1005.01
2018-01-21T06:56:58.297Z,1005.06
2018-01-21T06:57:58.254Z,1005.05
2018-01-21T06:58:58.205Z,1005.04
2018-01-21T06:59:58.165Z,1005.07
2018-01-21T07:00:58.167Z,1005.08
2018-01-21T07:01:58.077Z,1005.12
2018-01-21T07:02:58.033Z,1005.15
2018-01-21T07:03:57.993Z,1005.18
2018-01-21T07:04:57.947Z,1005.20
2018-01-21T07:05:57.903Z,1005.25
2018-01-21T07:06:57.860Z,1005.25
2018-01-21T07:07:57.830Z,1005.24
2018-01-21T07:08:57.782Z,1005.27
2018-01-21T07:09:57.731Z,1005.27
2018-01-21T07:10:58.228Z,1005.27
2018-01-21T07:11:57.651Z,1005.28
2018-01-21T07:12:57.623Z,1005.31
2018-01-21T07:13:57.556Z,1005.32
2018-01-21T07:14:57.515Z,1005.30
2018-01-21T07:15:57.473Z,1005.36
2018-01-21T07:16:57.429Z,1005.33
2018-01-21T07:17:57.385Z,1005.34
2018-01-21T07:18:57.342Z,1005.35
2018-01-21T07:19:57.300Z,1005.39
2018-01-21T07:20:57.255Z,1005.47
2018-01-21T07:21:57.216Z,1005.43
2018-01-21T07:22:57.170Z,1005.45
2018-01-21T07:23:57.126Z,1005.50
2018-01-21T07:24:57.082Z,1005.52
2018-01-21T07:25:57.039Z,1005.52
2018-01-21T07:26:57.019Z,1005.55
2018-01-21T07:27:56.955Z,1005.57
2018-01-21T07:28:56.910Z,1005.59
2018-01-21T07:29:56.866Z,1005.62
2018-01-21T07:30:56.824Z,1005.62
2018-01-21T07:31:56.800Z,1005.64
2018-01-21T07:32:56.737Z,1005.74
2018-01-21T07:33:56.695Z,1005.78
2018-01-21T07:34:56.670Z,1005.74
2018-01-21T07:35:56.608Z,1005.81
2018-01-21T07:36:56.565Z,1005.81
2018-01-21T07:37:56.528Z,1005.81
2018-01-21T07:38:56.485Z,1005.86
2018-01-21T07:39:56.437Z,1005.91
2018-01-21T07:40:56.424Z,1005.93
2018-01-21T07:41:56.350Z,1005.91
2018-01-21T07:42:56.307Z,1006.00
2018-01-21T07:43:56.269Z,1005.98
2018-01-21T07:44:56.226Z,1005.98
2018-01-21T07:45:56.178Z,1006.09
2018-01-21T07:46:56.134Z,1006.09
2018-01-21T07:47:56.092Z,1006.08
2018-01-21T07:48:56.047Z,1006.07
2018-01-21T07:49:56.007Z,1006.12
2018-01-21T07:50:55.962Z,1006.16
2018-01-21T07:51:55.927Z,1006.14
2018-01-21T07:52:55.879Z,1006.18
2018-01-21T07:53:55.833Z,1006.18
2018-01-21T07:54:55.800Z,1006.19
2018-01-21T07:55:55.755Z,1006.27
2018-01-21T07:56:55.704Z,1006.27
2018-01-21T07:57:55.668Z,1006.32
2018-01-21T07:58:55.620Z,1006.29
2018-01-21T07:59:55.585Z,1006.34
2018-01-21T08:00:55.547Z,1006.35
2018-01-21T08:01:55.492Z,1006.37
2018-01-21T08:02:55.452Z,1006.32
2018-01-21T08:03:55.404Z,1006.32
2018-01-21T08:04:55.374Z,1006.42
2018-01-21T08:05:55.317Z,1006.37
2018-01-21T08:06:55.275Z,1006.42
2018-01-21T08:07:55.231Z,1006.41
2018-01-21T08:08:55.203Z,1006.44
2018-01-21T08:09:55.169Z,1006.48
2018-01-21T08:10:55.100Z,1006.50
2018-01-21T08:11:55.060Z,1006.51
2018-01-21T08:12:55.027Z,1006.59
2018-01-21T08:13:55.000Z,1006.57
2018-01-21T08:14:54.929Z,1006.60
2018-01-21T08:15:54.898Z,1006.62
2018-01-21T08:16:54.844Z,1006.68
2018-01-21T08:17:54.803Z,1006.69
2018-01-21T08:18:54.803Z,1006.70
2018-01-21T08:19:54.715Z,1006.71
2018-01-21T08:20:54.676Z,1006.73
2018-01-21T08:21:54.635Z,1006.76
2018-01-21T08:22:54.589Z,1006.79
2018-01-21T08:23:54.547Z,1006.81
2018-01-21T08:24:54.505Z,1006.80
2018-01-21T08:25:54.462Z,1006.86
2018-01-21T08:26:54.420Z,1006.94
2018-01-21T08:27:54.374Z,1006.96
2018-01-21T08:28:54.329Z,1006.98
2018-01-21T08:29:54.287Z,1007.00
2018-01-21T08:30:54.284Z,1007.04
2018-01-21T08:31:54.209Z,1007.07
2018-01-21T08:32:54.172Z,1007.10
2018-01-21T08:33:54.121Z,1007.09
2018-01-21T08:34:54.080Z,1007.11
2018-01-21T08:35:54.045Z,1007.15
2018-01-21T08:36:53.990Z,1007.18
2018-01-21T08:37:53.947Z,1007.17
2018-01-21T08:38:53.905Z,1007.15
2018-01-21T08:39:53.867Z,1007.20
2018-01-21T08:40:53.817Z,1007.20
2018-01-21T08:41:53.779Z,1007.21
2018-01-21T08:42:53.733Z,1007.21
2018-01-21T08:43:53.701Z,1007.24
2018-01-21T08:44:53.652Z,1007.24
2018-01-21T08:45:53.606Z,1007.29
2018-01-21T08:46:53.564Z,1007.31
2018-01-21T08:47:53.521Z,1007.32
2018-01-21T08:48:53.476Z,1007.36
2018-01-21T08:49:53.436Z,1007.36
2018-01-21T08:50:53.402Z,1007.41
2018-01-21T08:51:53.349Z,1007.41
2018-01-21T08:52:53.313Z,1007.47
2018-01-21T08:53:53.265Z,1007.46
2018-01-21T08:54:53.245Z,1007.47
2018-01-21T08:55:53.177Z,1007.55
2018-01-21T08:56:53.134Z,1007.56
2018-01-21T08:57:53.112Z,1007.57
2018-01-21T08:58:53.049Z,1007.57
2018-01-21T08:59:53.061Z,1007.56
2018-01-21T09:00:52.966Z,1007.58
2018-01-21T09:01:52.925Z,1007.59
2018-01-21T09:02:52.880Z,1007.58
2018-01-21T09:03:52.837Z,1007.62
2018-01-21T09:04:52.793Z,1007.60
2018-01-21T09:05:52.758Z,1007.66
2018-01-21T09:06:52.709Z,1007.69
2018-01-21T09:07:52.682Z,1007.71
2018-01-21T09:08:52.623Z,1007.73
2018-01-21T09:09:52.626Z,1007.77
2018-01-21T09:10:52.549Z,1007.78
2018-01-21T09:11:52.561Z,1007.81
2018-01-21T09:12:52.450Z,1007.76
2018-01-21T09:13:52.409Z,1007.81
2018-01-21T09:14:52.367Z,1007.78
2018-01-21T09:15:52.325Z,1007.82
2018-01-21T09:16:52.288Z,1007.80
2018-01-21T09:17:52.245Z,1007.88
2018-01-21T09:18:52.201Z,1007.87
2018-01-21T09:19:52.161Z,1007.91
2018-01-21T09:20:52.112Z,1007.88
2018-01-21T09:21:52.068Z,1007.90
2018-01-21T09:22:52.027Z,1007.96
2018-01-21T09:23:52.008Z,1007.96
2018-01-21T09:24:51.982Z,1007.96
2018-01-21T09:25:51.912Z,1008.00
2018-01-21T09:26:51.857Z,1008.03
2018-01-21T09:27:51.820Z,1008.09
2018-01-21T09:28:51.780Z,1008.08
2018-01-21T09:29:51.730Z,1008.09
2018-01-21T09:30:51.687Z,1008.14
2018-01-21T09:31:51.651Z,1008.15
2018-01-21T09:32:51.601Z,1008.18
2018-01-21T09:33:51.558Z,1008.18
2018-01-21T09:34:51.526Z,1008.22
2018-01-21T09:35:51.475Z,1008.20
2018-01-21T09:36:51.450Z,1008.24
2018-01-21T09:37:51.388Z,1008.23
2018-01-21T09:38:51.348Z,1008.25
2018-01-21T09:39:51.311Z,1008.29
2018-01-21T09:40:51.265Z,1008.27
2018-01-21T09:41:51.222Z,1008.32
2018-01-21T09:42:51.182Z,1008.30
2018-01-21T09:43:51.137Z,1008.31
2018-01-21T09:44:51.092Z,1008.34
2018-01-21T09:45:51.057Z,1008.35
2018-01-21T09:46:51.010Z,1008.45
2018-01-21T09:47:50.963Z,1008.38
2018-01-21T09:48:50.926Z,1008.37
2018-01-21T09:49:50.878Z,1008.43
2018-01-21T09:50:50.843Z,1008.47
2018-01-21T09:51:50.806Z,1008.48
2018-01-21T09:52:50.766Z,1008.54
2018-01-21T09:53:50.718Z,1008.51
2018-01-21T09:54:50.664Z,1008.55
2018-01-21T09:55:50.631Z,1008.56
2018-01-21T09:56:50.597Z,1008.58
2018-01-21T09:57:50.546Z,1008.61
2018-01-21T09:58:50.510Z,1008.67
2018-01-21T09:59:50.452Z,1008.70
2018-01-21T10:00:50.422Z,1008.66
2018-01-21T10:01:50.384Z,1008.70
2018-01-21T10:02:50.334Z,1008.74
2018-01-21T10:03:50.298Z,1008.75
2018-01-21T10:04:50.247Z,1008.76
2018-01-21T10:05:50.200Z,1008.76
2018-01-21T10:06:50.158Z,1008.83
2018-01-21T10:07:50.151Z,1008.84
2018-01-21T10:08:50.081Z,1008.87
2018-01-21T10:09:50.039Z,1008.86
2018-01-21T10:10:49.986Z,1008.85
2018-01-21T10:11:49.947Z,1008.83
2018-01-21T10:12:49.902Z,1008.87
2018-01-21T10:13:49.861Z,1008.87
2018-01-21T10:14:49.824Z,1008.89
2018-01-21T10:15:49.777Z,1008.96
2018-01-21T10:16:49.732Z,1008.91
2018-01-21T10:17:49.691Z,1008.96
2018-01-21T10:18:49.648Z,1008.96
2018-01-21T10:19:49.607Z,1008.95
2018-01-21T10:20:49.564Z,1008.96
2018-01-21T10:21:49.520Z,1008.98
2018-01-21T10:22:49.483Z,1009.00
2018-01-21T10:23:49.441Z,1009.04
2018-01-21T10:24:49.394Z,1008.98
2018-01-21T10:25:49.349Z,1009.02
2018-01-21T10:26:49.316Z,1009.02
2018-01-21T10:27:49.270Z,1009.05
2018-01-21T10:28:49.229Z,1009.07
2018-01-21T10:29:49.199Z,1009.11
2018-01-21T10:30:49.144Z,1009.12
2018-01-21T10:31:49.112Z,1009.16
2018-01-21T10:32:49.054Z,1009.20
2018-01-21T10:33:49.018Z,1009.21
2018-01-21T10:34:48.980Z,1009.22
2018-01-21T10:35:48.937Z,1009.22
2018-01-21T10:36:49.277Z,1009.26
2018-01-21T10:37:49.137Z,1009.24
2018-01-21T10:38:48.858Z,1009.27
2018-01-21T10:39:48.876Z,1009.28
2018-01-21T10:40:48.733Z,1009.27
2018-01-21T10:41:48.844Z,1009.30
2018-01-21T10:42:48.800Z,1009.33
2018-01-21T10:43:48.781Z,1009.32
2018-01-21T10:44:48.550Z,1009.33
2018-01-21T10:45:48.544Z,1009.31
2018-01-21T10:46:48.523Z,1009.35
2018-01-21T10:47:48.698Z,1009.37
2018-01-21T10:48:48.514Z,1009.38
2018-01-21T10:49:48.331Z,1009.37
2018-01-21T10:50:48.917Z,1009.39
2018-01-21T10:51:48.494Z,1009.42
2018-01-21T10:52:48.272Z,1009.41
2018-01-21T10:53:48.179Z,1009.40
2018-01-21T10:54:48.128Z,1009.43
2018-01-21T10:55:48.091Z,1009.42
2018-01-21T10:56:48.041Z,1009.40
2018-01-21T10:57:48.118Z,1009.43
2018-01-21T10:58:47.957Z,1009.45
2018-01-21T10:59:47.940Z,1009.46
2018-01-21T11:00:47.916Z,1009.44
2018-01-21T11:01:47.844Z,1009.44
2018-01-21T11:02:47.817Z,1009.49
2018-01-21T11:03:47.750Z,1009.49
2018-01-21T11:04:47.721Z,1009.50
2018-01-21T11:05:47.670Z,1009.55
2018-01-21T11:06:47.624Z,1009.52
2018-01-21T11:07:47.672Z,1009.54
2018-01-21T11:08:47.608Z,1009.57
2018-01-21T11:09:47.512Z,1009.62
2018-01-21T11:10:47.454Z,1009.60
2018-01-21T11:11:47.585Z,1009.62
2018-01-21T11:12:47.358Z,1009.65
2018-01-21T11:13:47.326Z,1009.62
2018-01-21T11:14:47.283Z,1009.64
2018-01-21T11:15:47.234Z,1009.63
2018-01-21T11:16:47.184Z,1009.64
2018-01-21T11:17:47.146Z,1009.67
2018-01-21T11:18:47.108Z,1009.69
2018-01-21T11:19:47.061Z,1009.68
2018-01-21T11:20:47.021Z,1009.71
2018-01-21T11:21:46.982Z,1009.71
2018-01-21T11:22:46.951Z,1009.69
2018-01-21T11:23:46.895Z,1009.74
2018-01-21T11:24:46.863Z,1009.75
2018-01-21T11:25:46.843Z,1009.74
2018-01-21T11:26:46.765Z,1009.78
2018-01-21T11:27:46.724Z,1009.74
2018-01-21T11:28:46.681Z,1009.75
2018-01-21T11:29:46.636Z,1009.79
2018-01-21T11:30:46.592Z,1009.79
2018-01-21T11:31:46.555Z,1009.83
2018-01-21T11:32:46.526Z,1009.84
2018-01-21T11:33:46.467Z,1009.85
2018-01-21T11:34:46.426Z,1009.84
2018-01-21T11:35:46.387Z,1009.87
2018-01-21T11:36:46.340Z,1009.88
2018-01-21T11:37:46.299Z,1009.89
2018-01-21T11:38:46.260Z,1009.91
2018-01-21T11:39:46.218Z,1009.90
2018-01-21T11:40:46.169Z,1009.94
2018-01-21T11:41:46.130Z,1009.92
2018-01-21T11:42:46.088Z,1009.96
2018-01-21T11:43:46.045Z,1009.96
2018-01-21T11:44:46.000Z,1009.98
2018-01-21T11:45:45.957Z,1009.98
2018-01-21T11:46:45.923Z,1010.02
2018-01-21T11:47:45.898Z,1010.03
2018-01-21T11:48:45.845Z,1010.05
2018-01-21T11:49:45.799Z,1010.05
2018-01-21T11:50:45.768Z,1010.07
2018-01-21T11:51:45.710Z,1010.06
2018-01-21T11:52:45.685Z,1010.09
2018-01-21T11:53:45.705Z,1010.09
2018-01-21T11:54:45.591Z,1010.12
2018-01-21T11:55:45.550Z,1010.14
2018-01-21T11:56:45.553Z,1010.13
2018-01-21T11:57:45.468Z,1010.14
2018-01-21T11:58:45.414Z,1010.19
2018-01-21T11:59:45.420Z,1010.22
2018-01-21T12:00:45.332Z,1010.21
2018-01-21T12:01:45.310Z,1010.22
2018-01-21T12:02:45.253Z,1010.27
2018-01-21T12:03:45.234Z,1010.26
2018-01-21T12:04:45.158Z,1010.29
2018-01-21T12:05:45.145Z,1010.29
2018-01-21T12:06:45.128Z,1010.27